Arkadelphia, Arkansas
Current Conditions -  °F | °C
As of 11:33 PM on Tuesday 21 Oct 2014 (Local Time) from KADF Reporting Station
Haze Haze  
Wind Chill: 14°   Ceiling: Unl
Heat Index: 14°   Visibility: 3mi
Dew Point: 14°   Wind: 0mph
Humidity: 100%   Direction: NA
Pressure: 30.09"   Gusts: NA
Location:  34.12°N, 93.05°W
Report Text: KADF 220433Z AUTO 00000KT 3SM BR CLR 14/14 A3009 RMK AO2
Loading
Personal Weather Stations






























Interactive Weather Map
Tropical Storm Tracking
New forecast layout! Learn more

10-Day Weather Forecast

Advertisements
Track Severe Weather on mobile